createdAt,value
2018-09-02T00:00:34.749Z,56.77
2018-09-02T00:03:03.819Z,56.43
2018-09-02T00:05:31.520Z,56.37
2018-09-02T00:07:59.777Z,56.94
2018-09-02T00:13:18.335Z,57.12
2018-09-02T00:15:45.997Z,56.33
2018-09-02T00:21:17.151Z,56.84
2018-09-02T00:26:35.101Z,57.06
2018-09-02T00:29:20.205Z,56.35
2018-09-02T00:31:47.965Z,57.22
2018-09-02T00:34:16.011Z,57.19
2018-09-02T00:39:34.377Z,57.11
2018-09-02T00:43:38.215Z,57.16
2018-09-02T00:46:06.025Z,57.13
2018-09-02T00:48:34.051Z,57.25
2018-09-02T00:51:02.105Z,57.29
2018-09-02T00:53:29.856Z,57.19
2018-09-02T00:55:57.514Z,57.26
2018-09-02T00:58:25.221Z,56.75
2018-09-02T01:00:52.893Z,56.75
2018-09-02T01:03:20.599Z,57.05
2018-09-02T01:05:49.511Z,56.59
2018-09-02T01:08:17.586Z,56.70
2018-09-02T01:10:45.558Z,56.84
2018-09-02T01:13:13.172Z,57.28
2018-09-02T01:15:41.307Z,57.28
2018-09-02T01:18:09.302Z,56.66
2018-09-02T01:20:37.001Z,56.80
2018-09-02T01:23:04.761Z,57.05
2018-09-02T01:25:32.712Z,56.66
2018-09-02T01:28:01.025Z,57.31
2018-09-02T01:30:28.748Z,56.79
2018-09-02T01:32:56.706Z,56.67
2018-09-02T01:35:29.977Z,56.84
2018-09-02T01:37:57.658Z,56.72
2018-09-02T01:40:25.601Z,57.69
2018-09-02T01:42:53.399Z,56.81
2018-09-02T01:45:21.098Z,57.08
2018-09-02T01:47:48.838Z,56.77
2018-09-02T01:50:16.538Z,56.87
2018-09-02T01:52:44.921Z,57.41
2018-09-02T01:55:12.570Z,57.54
2018-09-02T01:57:40.288Z,57.39
2018-09-02T02:00:08.266Z,57.58
2018-09-02T02:02:36.415Z,56.99
2018-09-02T02:05:04.167Z,56.83
2018-09-02T02:07:32.163Z,56.83
2018-09-02T02:09:59.932Z,57.36
2018-09-02T02:12:27.961Z,57.52
2018-09-02T02:14:55.990Z,57.62
2018-09-02T02:17:24.112Z,57.61
2018-09-02T02:19:52.409Z,56.88
2018-09-02T02:22:20.137Z,57.03
2018-09-02T02:24:48.397Z,57.60
2018-09-02T02:27:16.426Z,57.57
2018-09-02T02:29:44.538Z,57.55
2018-09-02T02:32:12.299Z,57.53
2018-09-02T02:34:40.020Z,57.04
2018-09-02T02:37:07.930Z,57.62
2018-09-02T02:39:35.679Z,57.58
2018-09-02T02:42:03.875Z,57.05
2018-09-02T02:44:31.942Z,57.20
2018-09-02T02:46:59.590Z,56.95
2018-09-02T02:49:27.815Z,56.98
2018-09-02T02:51:55.500Z,57.22
2018-09-02T02:54:23.462Z,57.74
2018-09-02T02:56:51.740Z,57.58
2018-09-02T02:59:19.424Z,57.07
2018-09-02T03:01:47.138Z,57.76
2018-09-02T03:04:14.841Z,57.31
2018-09-02T03:06:42.595Z,57.41
2018-09-02T03:09:11.785Z,57.17
2018-09-02T03:11:40.525Z,57.05
2018-09-02T03:14:09.025Z,57.70
2018-09-02T03:16:37.144Z,57.83
2018-09-02T03:19:04.798Z,57.36
2018-09-02T03:21:32.482Z,57.20
2018-09-02T03:24:00.459Z,57.81
2018-09-02T03:26:29.218Z,57.93
2018-09-02T03:28:57.626Z,57.84
2018-09-02T03:31:25.367Z,58.12
2018-09-02T03:33:53.005Z,57.90
2018-09-02T03:36:20.725Z,57.26
2018-09-02T03:38:48.757Z,57.92
2018-09-02T03:41:16.461Z,57.34
2018-09-02T03:43:44.899Z,57.91
2018-09-02T03:49:18.359Z,57.47
2018-09-02T03:51:46.102Z,57.93
2018-09-02T03:54:13.814Z,57.27
2018-09-02T03:56:42.052Z,57.61
2018-09-02T03:59:10.122Z,57.58
2018-09-02T04:01:37.795Z,57.99
2018-09-02T04:04:05.922Z,57.25
2018-09-02T04:06:33.617Z,57.85
2018-09-02T04:09:01.396Z,57.61
2018-09-02T04:11:29.788Z,57.28
2018-09-02T04:13:58.044Z,57.31
2018-09-02T04:16:25.836Z,57.38
2018-09-02T04:18:53.550Z,57.34
2018-09-02T04:21:41.651Z,58.03
2018-09-02T04:24:09.590Z,58.01
2018-09-02T04:26:37.459Z,58.00
2018-09-02T04:29:05.237Z,57.34
2018-09-02T04:31:32.963Z,57.84
2018-09-02T04:34:00.663Z,57.38
2018-09-02T04:36:28.924Z,57.31
2018-09-02T04:38:56.695Z,57.89
2018-09-02T04:41:24.428Z,57.36
2018-09-02T04:43:52.474Z,57.38
2018-09-02T04:46:20.206Z,57.85
2018-09-02T04:48:48.235Z,57.31
2018-09-02T04:51:16.319Z,57.29
2018-09-02T04:53:44.065Z,57.84
2018-09-02T04:56:11.775Z,57.49
2018-09-02T04:58:39.590Z,57.76
2018-09-02T05:01:07.356Z,57.17
2018-09-02T05:03:35.751Z,57.79
2018-09-02T05:06:03.503Z,57.74
2018-09-02T05:08:31.218Z,57.10
2018-09-02T05:10:59.275Z,57.59
2018-09-02T05:13:26.997Z,57.09
2018-09-02T05:15:54.755Z,57.32
2018-09-02T05:18:22.547Z,57.11
2018-09-02T05:20:50.222Z,57.29
2018-09-02T05:23:18.085Z,57.09
2018-09-02T05:25:46.152Z,57.50
2018-09-02T05:28:13.917Z,56.88
2018-09-02T05:30:42.078Z,56.82
2018-09-02T05:33:09.864Z,57.41
2018-09-02T05:35:37.608Z,57.36
2018-09-02T05:38:05.647Z,56.68
2018-09-02T05:40:33.446Z,57.47
2018-09-02T05:43:01.763Z,56.92
2018-09-02T05:45:29.472Z,57.01
2018-09-02T05:47:57.209Z,56.58
2018-09-02T05:50:24.928Z,56.99
2018-09-02T05:52:52.692Z,57.25
2018-09-02T05:55:20.448Z,56.62
2018-09-02T05:57:48.236Z,56.56
2018-09-02T06:00:16.371Z,57.21
2018-09-02T06:02:44.140Z,56.45
2018-09-02T06:05:11.893Z,56.40
2018-09-02T06:07:39.617Z,57.07
2018-09-02T06:10:07.439Z,56.34
2018-09-02T06:12:35.123Z,56.97
2018-09-02T06:15:02.872Z,56.39
2018-09-02T06:17:31.669Z,56.93
2018-09-02T06:20:00.267Z,56.40
2018-09-02T06:22:28.016Z,56.49
2018-09-02T06:24:55.712Z,56.20
2018-09-02T06:27:23.708Z,56.71
2018-09-02T06:29:51.468Z,56.72
2018-09-02T06:32:19.749Z,56.69
2018-09-02T06:34:47.717Z,55.97
2018-09-02T06:37:15.504Z,56.00
2018-09-02T06:39:43.227Z,56.70
2018-09-02T06:42:10.955Z,56.55
2018-09-02T06:44:39.059Z,56.49
2018-09-02T06:47:06.855Z,56.09
2018-09-02T06:49:34.619Z,56.46
2018-09-02T06:52:02.395Z,56.35
2018-09-02T06:54:30.613Z,55.97
2018-09-02T06:56:58.943Z,55.73
2018-09-02T06:59:26.668Z,55.65
2018-09-02T07:01:54.437Z,56.07
2018-09-02T07:04:22.116Z,55.35
2018-09-02T07:06:50.143Z,56.11
2018-09-02T07:09:17.874Z,55.70
2018-09-02T07:11:45.584Z,56.04
2018-09-02T07:14:13.326Z,55.95
2018-09-02T07:16:41.045Z,55.72
2018-09-02T07:19:09.070Z,55.62
2018-09-02T07:21:36.771Z,55.18
2018-09-02T07:24:04.476Z,54.88
2018-09-02T07:26:32.865Z,55.83
2018-09-02T07:29:00.615Z,55.60
2018-09-02T07:31:28.410Z,54.90
2018-09-02T07:33:56.072Z,55.37
2018-09-02T07:36:24.207Z,55.31
2018-09-02T07:38:52.048Z,54.64
2018-09-02T07:41:20.169Z,55.13
2018-09-02T07:43:48.184Z,55.37
2018-09-02T07:46:15.803Z,55.16
2018-09-02T07:48:43.757Z,54.27
2018-09-02T07:51:11.768Z,54.93
2018-09-02T07:53:39.918Z,54.90
2018-09-02T07:56:08.068Z,54.16
2018-09-02T07:58:36.004Z,54.14
2018-09-02T08:01:03.976Z,54.76
2018-09-02T08:03:32.039Z,54.40
2018-09-02T08:05:59.808Z,54.11
2018-09-02T08:08:27.492Z,53.75
2018-09-02T08:10:55.251Z,54.45
2018-09-02T08:13:22.922Z,53.44
2018-09-02T08:15:51.060Z,53.61
2018-09-02T08:18:18.833Z,53.43
2018-09-02T08:20:46.554Z,54.14
2018-09-02T08:23:14.359Z,53.47
2018-09-02T08:25:42.067Z,53.35
2018-09-02T08:28:09.858Z,53.44
2018-09-02T08:30:37.873Z,53.87
2018-09-02T08:33:05.839Z,54.02
2018-09-02T08:35:33.455Z,53.99
2018-09-02T08:38:01.148Z,53.43
2018-09-02T08:40:28.858Z,53.89
2018-09-02T08:42:56.577Z,53.17
2018-09-02T08:45:24.707Z,53.88
2018-09-02T08:47:52.427Z,53.08
2018-09-02T08:50:20.361Z,53.71
2018-09-02T08:52:48.104Z,53.23
2018-09-02T08:55:15.772Z,53.79
2018-09-02T08:57:43.435Z,53.03
2018-09-02T09:00:12.608Z,53.57
2018-09-02T09:02:40.455Z,53.16
2018-09-02T09:05:08.539Z,53.45
2018-09-02T09:07:36.399Z,53.42
2018-09-02T09:10:04.324Z,53.11
2018-09-02T09:12:32.302Z,53.57
2018-09-02T09:15:00.044Z,52.47
2018-09-02T09:17:27.781Z,52.43
2018-09-02T09:19:55.487Z,52.35
2018-09-02T09:22:23.495Z,52.34
2018-09-02T09:24:51.256Z,52.00
2018-09-02T09:27:18.946Z,52.12
2018-09-02T09:29:46.661Z,52.54
2018-09-02T09:32:14.415Z,52.02
2018-09-02T09:34:42.131Z,52.61
2018-09-02T09:37:10.220Z,52.52
2018-09-02T09:39:37.907Z,51.76
2018-09-02T09:42:06.016Z,52.55
2018-09-02T09:44:34.026Z,52.45
2018-09-02T09:47:02.045Z,52.36
2018-09-02T09:49:30.552Z,51.65
2018-09-02T09:51:58.266Z,52.33
2018-09-02T09:54:26.475Z,51.98
2018-09-02T09:56:55.936Z,51.79
2018-09-02T09:59:23.593Z,51.53
2018-09-02T10:01:51.928Z,51.64
2018-09-02T10:04:19.601Z,51.85
2018-09-02T10:06:47.352Z,51.80
2018-09-02T10:09:15.704Z,52.37
2018-09-02T10:11:44.082Z,52.14
2018-09-02T10:14:12.143Z,52.25
2018-09-02T10:16:39.831Z,52.11
2018-09-02T10:19:08.178Z,52.23
2018-09-02T10:21:36.078Z,51.54
2018-09-02T10:24:04.191Z,51.28
2018-09-02T10:26:32.169Z,51.41
2018-09-02T10:28:59.931Z,51.90
2018-09-02T10:31:27.796Z,52.10
2018-09-02T10:33:56.103Z,51.70
2018-09-02T10:36:24.528Z,51.52
2018-09-02T10:38:52.265Z,51.37
2018-09-02T10:41:20.180Z,51.42
2018-09-02T10:43:47.923Z,51.83
2018-09-02T10:46:15.714Z,52.12
2018-09-02T10:48:43.455Z,51.88
2018-09-02T10:51:11.169Z,51.68
2018-09-02T10:53:38.927Z,51.58
2018-09-02T10:56:06.624Z,52.34
2018-09-02T10:58:34.305Z,51.47
2018-09-02T11:01:02.150Z,51.56
2018-09-02T11:03:29.844Z,51.17
2018-09-02T11:05:57.626Z,51.72
2018-09-02T11:08:25.613Z,51.36
2018-09-02T11:10:53.376Z,51.30
2018-09-02T11:13:21.666Z,51.00
2018-09-02T11:15:49.798Z,51.02
2018-09-02T11:18:17.931Z,51.41
2018-09-02T11:20:45.758Z,51.52
2018-09-02T11:23:13.432Z,51.32
2018-09-02T11:25:41.291Z,50.86
2018-09-02T11:28:08.985Z,50.94
2018-09-02T11:30:36.683Z,50.45
2018-09-02T11:33:04.505Z,50.39
2018-09-02T11:35:32.583Z,50.62
2018-09-02T11:38:00.323Z,51.10
2018-09-02T11:40:28.083Z,51.40
2018-09-02T11:42:56.021Z,50.40
2018-09-02T11:45:23.722Z,50.23
2018-09-02T11:47:51.703Z,50.64
2018-09-02T11:50:19.419Z,50.32
2018-09-02T11:52:47.153Z,50.67
2018-09-02T11:55:15.133Z,50.77
2018-09-02T11:57:43.438Z,50.23
2018-09-02T12:00:11.107Z,50.54
2018-09-02T12:02:39.328Z,50.88
2018-09-02T12:05:07.099Z,50.31
2018-09-02T12:07:35.454Z,50.98
2018-09-02T12:10:03.802Z,51.14
2018-09-02T12:12:31.550Z,50.96
2018-09-02T12:14:59.295Z,50.35
2018-09-02T12:17:27.412Z,50.55
2018-09-02T12:19:55.112Z,50.61
2018-09-02T12:22:22.916Z,50.76
2018-09-02T12:24:50.628Z,50.26
2018-09-02T12:27:18.417Z,50.58
2018-09-02T12:29:46.758Z,50.81
2018-09-02T12:32:21.120Z,49.83
2018-09-02T12:34:48.871Z,49.86
2018-09-02T12:37:16.573Z,50.64
2018-09-02T12:39:44.345Z,50.01
2018-09-02T12:42:12.104Z,50.36
2018-09-02T12:44:39.865Z,50.05
2018-09-02T12:47:07.980Z,50.48
2018-09-02T12:49:35.733Z,49.98
2018-09-02T12:52:03.537Z,49.95
2018-09-02T12:54:31.263Z,50.51
2018-09-02T12:56:59.179Z,50.06
2018-09-02T13:02:21.633Z,50.64
2018-09-02T13:04:49.328Z,49.70
2018-09-02T13:08:27.186Z,50.32
2018-09-02T13:10:54.848Z,50.42
2018-09-02T13:13:22.769Z,49.71
2018-09-02T13:15:50.409Z,49.67
2018-09-02T13:18:18.085Z,49.68
2018-09-02T13:20:45.803Z,50.42
2018-09-02T13:23:14.311Z,50.35
2018-09-02T13:25:44.079Z,49.89
2018-09-02T13:28:12.491Z,50.53
2018-09-02T13:30:40.176Z,49.78
2018-09-02T13:33:07.868Z,49.83
2018-09-02T13:35:35.513Z,50.32
2018-09-02T13:38:03.612Z,50.06
2018-09-02T13:40:31.584Z,49.53
2018-09-02T13:42:59.544Z,50.28
2018-09-02T13:45:27.577Z,50.09
2018-09-02T13:47:55.334Z,49.81
2018-09-02T13:50:23.197Z,49.59
2018-09-02T13:52:50.923Z,49.39
2018-09-02T13:55:18.589Z,50.28
2018-09-02T13:57:46.657Z,50.26
2018-09-02T14:00:14.391Z,49.41
2018-09-02T14:02:42.598Z,49.72
2018-09-02T14:05:10.818Z,49.32
2018-09-02T14:07:39.055Z,49.90
2018-09-02T14:10:07.413Z,49.50
2018-09-02T14:12:35.173Z,48.83
2018-09-02T14:17:53.667Z,48.40
2018-09-02T14:20:21.974Z,46.53
2018-09-02T14:22:50.093Z,44.32
2018-09-02T14:25:18.582Z,43.12
2018-09-02T14:27:46.255Z,42.64
2018-09-02T14:30:13.933Z,40.91
2018-09-02T14:32:42.278Z,40.93
2018-09-02T14:35:10.295Z,43.37
2018-09-02T14:37:38.359Z,44.56
2018-09-02T14:40:06.447Z,43.88
2018-09-02T14:42:34.122Z,42.96
2018-09-02T14:45:02.154Z,41.12
2018-09-02T14:47:29.846Z,40.66
2018-09-02T14:49:57.698Z,39.68
2018-09-02T14:52:25.550Z,39.86
2018-09-02T14:54:53.656Z,38.82
2018-09-02T14:57:21.689Z,38.90
2018-09-02T14:59:49.418Z,38.95
2018-09-02T15:02:17.204Z,38.14
2018-09-02T15:04:45.507Z,38.46
2018-09-02T15:07:13.936Z,37.80
2018-09-02T15:09:41.959Z,38.69
2018-09-02T15:12:09.927Z,38.89
2018-09-02T15:14:37.615Z,41.27
2018-09-02T15:17:05.306Z,43.30
2018-09-02T15:19:33.543Z,41.46
2018-09-02T15:22:01.825Z,41.89
2018-09-02T15:24:30.171Z,40.75
2018-09-02T15:26:58.504Z,40.08
2018-09-02T15:29:26.249Z,38.62
2018-09-02T15:31:53.971Z,38.76
2018-09-02T15:34:22.349Z,38.74
2018-09-02T15:36:50.877Z,38.66
2018-09-02T15:39:18.577Z,39.76
2018-09-02T15:41:46.619Z,39.83
2018-09-02T15:44:14.772Z,40.73
2018-09-02T15:46:43.020Z,40.93
2018-09-02T15:49:10.760Z,42.59
2018-09-02T15:51:38.426Z,42.82
2018-09-02T15:54:06.409Z,43.98
2018-09-02T15:56:34.533Z,44.58
2018-09-02T15:59:02.652Z,45.25
2018-09-02T16:01:31.254Z,45.22
2018-09-02T16:03:59.184Z,46.40
2018-09-02T16:06:26.858Z,45.96
2018-09-02T16:08:54.529Z,47.00
2018-09-02T16:11:22.223Z,46.71
2018-09-02T16:13:50.571Z,47.18
2018-09-02T16:16:25.846Z,46.63
2018-09-02T16:18:53.578Z,47.61
2018-09-02T16:21:21.581Z,47.26
2018-09-02T16:23:49.282Z,48.09
2018-09-02T16:26:17.047Z,47.83
2018-09-02T16:28:46.491Z,47.65
2018-09-02T16:31:14.749Z,47.56
2018-09-02T16:33:42.676Z,48.40
2018-09-02T16:36:10.805Z,47.59
2018-09-02T16:38:38.711Z,48.51
2018-09-02T16:41:06.590Z,48.83
2018-09-02T16:43:34.529Z,47.88
2018-09-02T16:46:02.297Z,48.78
2018-09-02T16:48:30.041Z,49.11
2018-09-02T16:50:57.847Z,48.66
2018-09-02T16:53:25.617Z,48.30
2018-09-02T16:55:53.431Z,48.31
2018-09-02T16:58:21.358Z,48.45
2018-09-02T17:03:55.414Z,49.57
2018-09-02T17:09:13.122Z,49.09
2018-09-02T17:11:41.078Z,48.72
2018-09-02T17:14:09.409Z,47.85
2018-09-02T17:16:37.388Z,48.65
2018-09-02T17:19:13.319Z,47.88
2018-09-02T17:21:41.084Z,47.50
2018-09-02T17:24:08.717Z,48.24
2018-09-02T17:26:36.446Z,47.79
2018-09-02T17:29:04.090Z,47.56
2018-09-02T17:31:32.011Z,47.97
2018-09-02T17:33:59.713Z,48.33
2018-09-02T17:36:27.378Z,48.22
2018-09-02T17:38:55.080Z,48.43
2018-09-02T17:41:22.774Z,48.20
2018-09-02T17:43:50.784Z,48.54
2018-09-02T17:46:18.475Z,48.96
2018-09-02T17:48:46.160Z,48.18
2018-09-02T17:51:14.145Z,49.22
2018-09-02T17:53:42.395Z,49.00
2018-09-02T17:56:10.090Z,49.18
2018-09-02T17:58:37.797Z,49.15
2018-09-02T18:01:06.187Z,50.21
2018-09-02T18:03:33.863Z,49.28
2018-09-02T18:06:01.486Z,50.66
2018-09-02T18:08:29.398Z,50.04
2018-09-02T18:10:57.080Z,50.73
2018-09-02T18:13:24.762Z,50.59
2018-09-02T18:15:52.539Z,50.83
2018-09-02T18:18:20.164Z,50.06
2018-09-02T18:20:47.895Z,50.54
2018-09-02T18:23:15.845Z,50.54
2018-09-02T18:25:43.538Z,50.55
2018-09-02T18:28:14.299Z,50.71
2018-09-02T18:30:42.235Z,50.79
2018-09-02T18:33:10.214Z,51.03
2018-09-02T18:35:38.209Z,51.25
2018-09-02T18:38:05.887Z,51.74
2018-09-02T18:40:33.919Z,51.48
2018-09-02T18:43:01.629Z,51.53
2018-09-02T18:45:29.649Z,51.96
2018-09-02T18:47:57.312Z,51.68
2018-09-02T18:50:25.360Z,51.35
2018-09-02T18:52:53.337Z,51.46
2018-09-02T18:55:21.485Z,52.18
2018-09-02T18:57:49.172Z,51.54
2018-09-02T19:00:17.169Z,52.00
2018-09-02T19:02:46.009Z,52.19
2018-09-02T19:05:14.036Z,51.50
2018-09-02T19:07:41.662Z,51.22
2018-09-02T19:10:09.342Z,51.14
2018-09-02T19:12:37.246Z,51.84
2018-09-02T19:15:05.781Z,51.47
2018-09-02T19:17:33.435Z,51.12
2018-09-02T19:20:01.395Z,51.70
2018-09-02T19:22:29.473Z,52.28
2018-09-02T19:24:57.248Z,52.81
2018-09-02T19:27:25.492Z,52.32
2018-09-02T19:29:53.699Z,52.46
2018-09-02T19:32:21.607Z,52.40
2018-09-02T19:34:49.579Z,52.63
2018-09-02T19:37:17.583Z,53.21
2018-09-02T19:39:47.068Z,52.91
2018-09-02T19:42:15.582Z,52.82
2018-09-02T19:44:43.293Z,52.78
2018-09-02T19:47:11.486Z,53.49
2018-09-02T19:49:39.261Z,53.67
2018-09-02T19:52:07.173Z,53.50
2018-09-02T19:54:35.734Z,54.32
2018-09-02T19:57:03.434Z,54.17
2018-09-02T19:59:31.396Z,54.41
2018-09-02T20:01:59.218Z,54.45
2018-09-02T20:04:27.160Z,54.51
2018-09-02T20:06:54.831Z,54.46
2018-09-02T20:09:22.922Z,53.50
2018-09-02T20:11:51.102Z,53.89
2018-09-02T20:14:19.094Z,53.99
2018-09-02T20:16:46.977Z,53.60
2018-09-02T20:19:15.301Z,54.41
2018-09-02T20:21:43.126Z,54.61
2018-09-02T20:24:28.959Z,54.57
2018-09-02T20:26:58.244Z,54.33
2018-09-02T20:29:27.708Z,54.70
2018-09-02T20:31:55.714Z,54.16
2018-09-02T20:34:23.625Z,54.88
2018-09-02T20:36:52.491Z,54.28
2018-09-02T20:39:20.740Z,54.79
2018-09-02T20:41:48.531Z,55.12
2018-09-02T20:44:17.261Z,54.30
2018-09-02T20:46:45.011Z,54.36
2018-09-02T20:49:12.729Z,54.63
2018-09-02T20:51:40.385Z,54.74
2018-09-02T20:54:08.050Z,54.54
2018-09-02T20:56:35.780Z,55.11
2018-09-02T20:59:03.499Z,55.05
2018-09-02T21:01:31.540Z,55.30
2018-09-02T21:03:59.292Z,55.13
2018-09-02T21:06:27.011Z,54.43
2018-09-02T21:08:54.716Z,55.13
2018-09-02T21:11:22.395Z,55.33
2018-09-02T21:13:50.156Z,55.07
2018-09-02T21:16:18.149Z,55.16
2018-09-02T21:18:45.849Z,55.47
2018-09-02T21:21:13.536Z,54.82
2018-09-02T21:23:41.342Z,54.56
2018-09-02T21:26:10.083Z,55.24
2018-09-02T21:28:38.102Z,54.45
2018-09-02T21:31:05.891Z,54.99
2018-09-02T21:33:33.682Z,55.30
2018-09-02T21:36:01.691Z,55.48
2018-09-02T21:38:29.406Z,54.87
2018-09-02T21:40:57.307Z,55.46
2018-09-02T21:43:25.463Z,55.12
2018-09-02T21:45:53.205Z,55.27
2018-09-02T21:48:20.875Z,56.07
2018-09-02T21:50:48.706Z,55.45
2018-09-02T21:53:16.490Z,55.43
2018-09-02T21:55:44.143Z,56.13
2018-09-02T21:58:12.214Z,56.50
2018-09-02T22:00:41.302Z,56.63
2018-09-02T22:03:09.001Z,56.61
2018-09-02T22:05:36.857Z,56.67
2018-09-02T22:08:05.072Z,56.30
2018-09-02T22:10:32.723Z,56.71
2018-09-02T22:13:00.363Z,56.09
2018-09-02T22:15:28.096Z,56.58
2018-09-02T22:17:55.827Z,56.43
2018-09-02T22:20:23.868Z,56.32
2018-09-02T22:22:51.573Z,56.88
2018-09-02T22:25:19.424Z,56.93
2018-09-02T22:27:47.131Z,57.13
2018-09-02T22:30:15.244Z,57.21
2018-09-02T22:32:42.951Z,57.16
2018-09-02T22:35:10.629Z,57.34
2018-09-02T22:37:38.383Z,56.30
2018-09-02T22:40:06.113Z,56.92
2018-09-02T22:42:34.605Z,57.50
2018-09-02T22:45:02.530Z,56.59
2018-09-02T22:47:30.240Z,57.48
2018-09-02T22:49:57.951Z,57.44
2018-09-02T22:52:25.873Z,57.06
2018-09-02T22:54:53.604Z,57.04
2018-09-02T22:57:21.319Z,56.96
2018-09-02T22:59:49.375Z,57.28
2018-09-02T23:02:17.098Z,57.13
2018-09-02T23:04:45.123Z,57.17
2018-09-02T23:07:12.815Z,58.14
2018-09-02T23:09:40.484Z,57.37
2018-09-02T23:12:08.222Z,57.10
2018-09-02T23:14:36.226Z,58.51
2018-09-02T23:17:04.214Z,57.79
2018-09-02T23:19:32.060Z,58.60
2018-09-02T23:21:59.704Z,57.99
2018-09-02T23:24:27.387Z,58.66
2018-09-02T23:26:55.075Z,58.41
2018-09-02T23:29:22.787Z,58.47
2018-09-02T23:31:50.536Z,58.70
2018-09-02T23:34:18.656Z,58.36
2018-09-02T23:36:46.404Z,58.85
2018-09-02T23:39:14.585Z,58.48
2018-09-02T23:41:42.626Z,58.93
2018-09-02T23:44:10.298Z,59.05
2018-09-02T23:46:37.945Z,58.45
2018-09-02T23:49:05.744Z,58.24
2018-09-02T23:51:33.447Z,58.22
2018-09-02T23:54:01.434Z,58.26
2018-09-02T23:56:29.149Z,58.70
2018-09-02T23:58:57.167Z,58.11
